sensor_id;sensor_type;location;lat;lon;timestamp;P1;durP1;ratioP1;P2;durP2;ratioP2
209;SDS011;90;48.810;9.120;2022-12-18T00:00:49;137.20;;;51.20;;
209;SDS011;90;48.810;9.120;2022-12-18T00:03:16;138.52;;;52.50;;
209;SDS011;90;48.810;9.120;2022-12-18T00:05:46;121.95;;;51.38;;
209;SDS011;90;48.810;9.120;2022-12-18T00:08:13;122.75;;;48.03;;
209;SDS011;90;48.810;9.120;2022-12-18T00:10:40;115.18;;;43.67;;
209;SDS011;90;48.810;9.120;2022-12-18T00:13:07;103.25;;;42.60;;
209;SDS011;90;48.810;9.120;2022-12-18T00:15:35;101.35;;;42.28;;
209;SDS011;90;48.810;9.120;2022-12-18T00:18:03;113.82;;;41.28;;
209;SDS011;90;48.810;9.120;2022-12-18T00:20:31;102.03;;;40.33;;
209;SDS011;90;48.810;9.120;2022-12-18T00:23:02;102.82;;;42.17;;
209;SDS011;90;48.810;9.120;2022-12-18T00:25:29;105.57;;;40.45;;
209;SDS011;90;48.810;9.120;2022-12-18T00:27:58;84.30;;;36.30;;
209;SDS011;90;48.810;9.120;2022-12-18T00:30:25;89.10;;;38.35;;
209;SDS011;90;48.810;9.120;2022-12-18T00:32:52;104.15;;;37.97;;
209;SDS011;90;48.810;9.120;2022-12-18T00:35:20;101.38;;;40.17;;
209;SDS011;90;48.810;9.120;2022-12-18T00:37:48;109.53;;;41.35;;
209;SDS011;90;48.810;9.120;2022-12-18T00:40:15;103.65;;;40.13;;
209;SDS011;90;48.810;9.120;2022-12-18T00:42:42;116.35;;;44.95;;
209;SDS011;90;48.810;9.120;2022-12-18T00:45:24;103.40;;;40.03;;
209;SDS011;90;48.810;9.120;2022-12-18T00:47:52;105.45;;;41.38;;
209;SDS011;90;48.810;9.120;2022-12-18T00:50:20;119.60;;;42.25;;
209;SDS011;90;48.810;9.120;2022-12-18T00:52:48;107.38;;;42.60;;
209;SDS011;90;48.810;9.120;2022-12-18T00:55:15;111.45;;;43.42;;
209;SDS011;90;48.810;9.120;2022-12-18T00:57:42;107.40;;;42.65;;
209;SDS011;90;48.810;9.120;2022-12-18T01:00:11;94.95;;;40.83;;
209;SDS011;90;48.810;9.120;2022-12-18T01:02:39;112.05;;;41.58;;
209;SDS011;90;48.810;9.120;2022-12-18T01:05:07;108.00;;;42.45;;
209;SDS011;90;48.810;9.120;2022-12-18T01:07:38;110.18;;;42.40;;
209;SDS011;90;48.810;9.120;2022-12-18T01:10:05;116.88;;;45.50;;
209;SDS011;90;48.810;9.120;2022-12-18T01:12:34;122.00;;;43.60;;
209;SDS011;90;48.810;9.120;2022-12-18T01:15:01;112.13;;;44.80;;
209;SDS011;90;48.810;9.120;2022-12-18T01:17:29;115.30;;;44.38;;
209;SDS011;90;48.810;9.120;2022-12-18T01:19:56;101.32;;;42.17;;
209;SDS011;90;48.810;9.120;2022-12-18T01:22:23;112.10;;;44.35;;
209;SDS011;90;48.810;9.120;2022-12-18T01:24:52;119.22;;;44.65;;
209;SDS011;90;48.810;9.120;2022-12-18T01:27:18;111.78;;;43.88;;
209;SDS011;90;48.810;9.120;2022-12-18T01:29:45;126.15;;;45.65;;
209;SDS011;90;48.810;9.120;2022-12-18T01:32:12;122.70;;;45.58;;
209;SDS011;90;48.810;9.120;2022-12-18T01:34:39;109.68;;;40.47;;
209;SDS011;90;48.810;9.120;2022-12-18T01:37:06;115.47;;;45.75;;
209;SDS011;90;48.810;9.120;2022-12-18T01:39:33;115.35;;;45.70;;
209;SDS011;90;48.810;9.120;2022-12-18T01:42:02;108.50;;;42.08;;
209;SDS011;90;48.810;9.120;2022-12-18T01:47:35;118.05;;;43.13;;
209;SDS011;90;48.810;9.120;2022-12-18T01:50:06;106.13;;;42.08;;
209;SDS011;90;48.810;9.120;2022-12-18T01:52:35;117.65;;;42.30;;
209;SDS011;90;48.810;9.120;2022-12-18T01:55:07;108.05;;;40.78;;
209;SDS011;90;48.810;9.120;2022-12-18T01:57:37;110.13;;;40.30;;
209;SDS011;90;48.810;9.120;2022-12-18T02:00:06;121.43;;;43.92;;
209;SDS011;90;48.810;9.120;2022-12-18T02:02:35;121.65;;;42.95;;
209;SDS011;90;48.810;9.120;2022-12-18T02:05:03;116.38;;;41.80;;
209;SDS011;90;48.810;9.120;2022-12-18T02:07:33;112.50;;;43.40;;
209;SDS011;90;48.810;9.120;2022-12-18T02:10:07;106.90;;;40.97;;
209;SDS011;90;48.810;9.120;2022-12-18T02:12:45;113.22;;;42.80;;
209;SDS011;90;48.810;9.120;2022-12-18T02:15:16;110.38;;;43.22;;
209;SDS011;90;48.810;9.120;2022-12-18T02:17:52;114.03;;;42.15;;
209;SDS011;90;48.810;9.120;2022-12-18T02:20:25;112.80;;;43.42;;
209;SDS011;90;48.810;9.120;2022-12-18T02:23:02;129.10;;;44.70;;
209;SDS011;90;48.810;9.120;2022-12-18T02:25:39;116.72;;;44.50;;
209;SDS011;90;48.810;9.120;2022-12-18T02:28:19;122.45;;;43.60;;
209;SDS011;90;48.810;9.120;2022-12-18T02:30:50;119.90;;;44.75;;
209;SDS011;90;48.810;9.120;2022-12-18T02:33:19;123.30;;;46.58;;
209;SDS011;90;48.810;9.120;2022-12-18T02:35:50;121.75;;;45.15;;
209;SDS011;90;48.810;9.120;2022-12-18T02:38:20;136.40;;;47.78;;
209;SDS011;90;48.810;9.120;2022-12-18T02:40:47;125.00;;;45.53;;
209;SDS011;90;48.810;9.120;2022-12-18T02:43:17;119.07;;;46.08;;
209;SDS011;90;48.810;9.120;2022-12-18T02:45:47;112.80;;;43.47;;
209;SDS011;90;48.810;9.120;2022-12-18T02:48:16;123.90;;;44.63;;
209;SDS011;90;48.810;9.120;2022-12-18T02:50:48;121.93;;;45.60;;
209;SDS011;90;48.810;9.120;2022-12-18T02:53:27;122.03;;;44.03;;
209;SDS011;90;48.810;9.120;2022-12-18T02:56:02;123.32;;;45.38;;
209;SDS011;90;48.810;9.120;2022-12-18T02:58:37;111.47;;;44.30;;
209;SDS011;90;48.810;9.120;2022-12-18T03:01:13;126.70;;;45.47;;
209;SDS011;90;48.810;9.120;2022-12-18T03:03:46;110.63;;;42.28;;
209;SDS011;90;48.810;9.120;2022-12-18T03:06:20;123.25;;;43.92;;
209;SDS011;90;48.810;9.120;2022-12-18T03:08:52;111.55;;;43.90;;
209;SDS011;90;48.810;9.120;2022-12-18T03:11:23;117.80;;;42.35;;
209;SDS011;90;48.810;9.120;2022-12-18T03:14:07;132.05;;;43.72;;
209;SDS011;90;48.810;9.120;2022-12-18T03:16:35;118.32;;;44.25;;
209;SDS011;90;48.810;9.120;2022-12-18T03:19:04;117.65;;;42.72;;
209;SDS011;90;48.810;9.120;2022-12-18T03:21:36;124.82;;;43.70;;
209;SDS011;90;48.810;9.120;2022-12-18T03:24:05;110.32;;;42.42;;
209;SDS011;90;48.810;9.120;2022-12-18T03:26:34;117.55;;;44.88;;
209;SDS011;90;48.810;9.120;2022-12-18T03:29:04;116.13;;;45.63;;
209;SDS011;90;48.810;9.120;2022-12-18T03:31:39;120.00;;;45.08;;
209;SDS011;90;48.810;9.120;2022-12-18T03:34:12;124.28;;;45.60;;
209;SDS011;90;48.810;9.120;2022-12-18T03:36:42;122.97;;;43.13;;
209;SDS011;90;48.810;9.120;2022-12-18T03:39:09;118.22;;;43.45;;
209;SDS011;90;48.810;9.120;2022-12-18T03:41:38;106.32;;;41.88;;
209;SDS011;90;48.810;9.120;2022-12-18T03:44:12;117.55;;;41.60;;
209;SDS011;90;48.810;9.120;2022-12-18T03:46:47;115.03;;;43.33;;
209;SDS011;90;48.810;9.120;2022-12-18T03:49:23;122.85;;;41.88;;
209;SDS011;90;48.810;9.120;2022-12-18T03:51:54;111.80;;;42.67;;
209;SDS011;90;48.810;9.120;2022-12-18T03:54:28;118.00;;;42.10;;
209;SDS011;90;48.810;9.120;2022-12-18T03:56:58;110.10;;;42.50;;
209;SDS011;90;48.810;9.120;2022-12-18T03:59:28;119.20;;;42.53;;
209;SDS011;90;48.810;9.120;2022-12-18T04:01:58;100.75;;;40.85;;
209;SDS011;90;48.810;9.120;2022-12-18T04:04:27;113.85;;;41.33;;
209;SDS011;90;48.810;9.120;2022-12-18T04:06:56;112.75;;;42.88;;
209;SDS011;90;48.810;9.120;2022-12-18T04:09:24;118.90;;;42.78;;
209;SDS011;90;48.810;9.120;2022-12-18T04:11:52;110.75;;;43.15;;
209;SDS011;90;48.810;9.120;2022-12-18T04:14:19;120.38;;;41.15;;
209;SDS011;90;48.810;9.120;2022-12-18T04:16:47;113.78;;;41.22;;
209;SDS011;90;48.810;9.120;2022-12-18T04:19:14;99.72;;;41.65;;
209;SDS011;90;48.810;9.120;2022-12-18T04:21:42;109.00;;;41.53;;
209;SDS011;90;48.810;9.120;2022-12-18T04:24:08;97.57;;;38.95;;
209;SDS011;90;48.810;9.120;2022-12-18T04:26:35;102.03;;;37.40;;
209;SDS011;90;48.810;9.120;2022-12-18T04:29:03;94.63;;;36.75;;
209;SDS011;90;48.810;9.120;2022-12-18T04:31:30;99.03;;;37.75;;
209;SDS011;90;48.810;9.120;2022-12-18T04:33:58;89.13;;;37.65;;
209;SDS011;90;48.810;9.120;2022-12-18T04:36:25;84.00;;;36.33;;
209;SDS011;90;48.810;9.120;2022-12-18T04:38:52;89.05;;;36.10;;
209;SDS011;90;48.810;9.120;2022-12-18T04:41:19;89.43;;;35.70;;
209;SDS011;90;48.810;9.120;2022-12-18T04:43:46;77.50;;;34.60;;
209;SDS011;90;48.810;9.120;2022-12-18T04:46:13;88.45;;;36.28;;
209;SDS011;90;48.810;9.120;2022-12-18T04:48:40;87.88;;;37.10;;
209;SDS011;90;48.810;9.120;2022-12-18T04:51:08;93.78;;;36.22;;
209;SDS011;90;48.810;9.120;2022-12-18T04:53:35;85.00;;;35.47;;
209;SDS011;90;48.810;9.120;2022-12-18T04:56:03;77.25;;;33.50;;
209;SDS011;90;48.810;9.120;2022-12-18T04:58:31;75.10;;;34.13;;
209;SDS011;90;48.810;9.120;2022-12-18T05:00:58;79.28;;;35.10;;
209;SDS011;90;48.810;9.120;2022-12-18T05:03:26;82.75;;;34.30;;
209;SDS011;90;48.810;9.120;2022-12-18T05:05:53;82.63;;;33.40;;
209;SDS011;90;48.810;9.120;2022-12-18T05:08:21;75.68;;;34.28;;
209;SDS011;90;48.810;9.120;2022-12-18T05:10:48;75.43;;;33.50;;
209;SDS011;90;48.810;9.120;2022-12-18T05:13:15;82.63;;;35.55;;
209;SDS011;90;48.810;9.120;2022-12-18T05:15:42;73.50;;;32.38;;
209;SDS011;90;48.810;9.120;2022-12-18T05:18:17;78.90;;;34.10;;
209;SDS011;90;48.810;9.120;2022-12-18T05:20:44;83.38;;;36.30;;
209;SDS011;90;48.810;9.120;2022-12-18T05:23:11;82.15;;;34.55;;
209;SDS011;90;48.810;9.120;2022-12-18T05:25:39;70.45;;;33.50;;
209;SDS011;90;48.810;9.120;2022-12-18T05:28:06;71.70;;;33.05;;
209;SDS011;90;48.810;9.120;2022-12-18T05:30:33;76.45;;;34.60;;
209;SDS011;90;48.810;9.120;2022-12-18T05:33:00;79.63;;;34.72;;
209;SDS011;90;48.810;9.120;2022-12-18T05:35:27;92.13;;;35.97;;
209;SDS011;90;48.810;9.120;2022-12-18T05:37:54;92.95;;;36.45;;
209;SDS011;90;48.810;9.120;2022-12-18T05:40:21;84.88;;;36.58;;
209;SDS011;90;48.810;9.120;2022-12-18T05:42:49;80.95;;;35.47;;
209;SDS011;90;48.810;9.120;2022-12-18T05:45:16;75.57;;;33.47;;
209;SDS011;90;48.810;9.120;2022-12-18T05:47:43;76.18;;;34.05;;
209;SDS011;90;48.810;9.120;2022-12-18T05:50:11;73.78;;;33.22;;
209;SDS011;90;48.810;9.120;2022-12-18T05:52:38;90.07;;;35.42;;
209;SDS011;90;48.810;9.120;2022-12-18T05:55:05;75.25;;;33.40;;
209;SDS011;90;48.810;9.120;2022-12-18T05:57:32;76.95;;;35.55;;
209;SDS011;90;48.810;9.120;2022-12-18T06:00:00;68.50;;;31.30;;
209;SDS011;90;48.810;9.120;2022-12-18T06:02:27;83.45;;;33.97;;
209;SDS011;90;48.810;9.120;2022-12-18T06:04:54;73.60;;;34.33;;
209;SDS011;90;48.810;9.120;2022-12-18T06:07:21;74.53;;;34.03;;
209;SDS011;90;48.810;9.120;2022-12-18T06:09:48;75.25;;;32.35;;
209;SDS011;90;48.810;9.120;2022-12-18T06:12:15;76.95;;;33.25;;
209;SDS011;90;48.810;9.120;2022-12-18T06:14:42;74.55;;;32.58;;
209;SDS011;90;48.810;9.120;2022-12-18T06:17:11;73.13;;;32.38;;
209;SDS011;90;48.810;9.120;2022-12-18T06:19:38;75.72;;;33.15;;
209;SDS011;90;48.810;9.120;2022-12-18T06:22:05;77.57;;;32.63;;
209;SDS011;90;48.810;9.120;2022-12-18T06:24:31;87.25;;;33.72;;
209;SDS011;90;48.810;9.120;2022-12-18T06:26:59;79.13;;;34.45;;
209;SDS011;90;48.810;9.120;2022-12-18T06:29:26;79.25;;;31.55;;
209;SDS011;90;48.810;9.120;2022-12-18T06:31:53;78.38;;;32.95;;
209;SDS011;90;48.810;9.120;2022-12-18T06:34:21;70.53;;;32.50;;
209;SDS011;90;48.810;9.120;2022-12-18T06:36:48;64.80;;;31.98;;
209;SDS011;90;48.810;9.120;2022-12-18T06:39:15;81.32;;;31.45;;
209;SDS011;90;48.810;9.120;2022-12-18T06:41:42;80.32;;;32.53;;
209;SDS011;90;48.810;9.120;2022-12-18T06:44:08;64.70;;;30.80;;
209;SDS011;90;48.810;9.120;2022-12-18T06:46:36;72.25;;;33.45;;
209;SDS011;90;48.810;9.120;2022-12-18T06:49:03;82.90;;;32.13;;
209;SDS011;90;48.810;9.120;2022-12-18T06:51:31;73.72;;;34.20;;
209;SDS011;90;48.810;9.120;2022-12-18T06:53:58;73.32;;;32.90;;
209;SDS011;90;48.810;9.120;2022-12-18T06:56:25;68.53;;;32.70;;
209;SDS011;90;48.810;9.120;2022-12-18T06:58:53;71.20;;;31.95;;
209;SDS011;90;48.810;9.120;2022-12-18T07:01:20;70.93;;;30.13;;
209;SDS011;90;48.810;9.120;2022-12-18T07:03:51;72.38;;;32.38;;
209;SDS011;90;48.810;9.120;2022-12-18T07:06:19;69.22;;;31.13;;
209;SDS011;90;48.810;9.120;2022-12-18T07:08:49;76.32;;;31.95;;
209;SDS011;90;48.810;9.120;2022-12-18T07:11:17;71.57;;;32.03;;
209;SDS011;90;48.810;9.120;2022-12-18T07:13:45;69.53;;;32.13;;
209;SDS011;90;48.810;9.120;2022-12-18T07:16:13;95.95;;;32.80;;
209;SDS011;90;48.810;9.120;2022-12-18T07:18:41;80.68;;;33.60;;
209;SDS011;90;48.810;9.120;2022-12-18T07:21:09;72.45;;;32.63;;
209;SDS011;90;48.810;9.120;2022-12-18T07:23:37;65.07;;;30.02;;
209;SDS011;90;48.810;9.120;2022-12-18T07:26:07;72.97;;;31.48;;
209;SDS011;90;48.810;9.120;2022-12-18T07:28:36;68.07;;;30.80;;
209;SDS011;90;48.810;9.120;2022-12-18T07:31:03;75.45;;;30.48;;
209;SDS011;90;48.810;9.120;2022-12-18T07:33:31;67.97;;;31.45;;
209;SDS011;90;48.810;9.120;2022-12-18T07:35:59;74.20;;;30.65;;
209;SDS011;90;48.810;9.120;2022-12-18T07:38:26;73.03;;;31.52;;
209;SDS011;90;48.810;9.120;2022-12-18T07:40:53;67.22;;;29.02;;
209;SDS011;90;48.810;9.120;2022-12-18T07:43:21;71.72;;;31.48;;
209;SDS011;90;48.810;9.120;2022-12-18T07:45:49;64.32;;;30.40;;
209;SDS011;90;48.810;9.120;2022-12-18T07:48:16;81.38;;;31.50;;
209;SDS011;90;48.810;9.120;2022-12-18T07:50:43;66.03;;;29.75;;
209;SDS011;90;48.810;9.120;2022-12-18T07:53:10;67.43;;;32.55;;
209;SDS011;90;48.810;9.120;2022-12-18T07:55:37;72.15;;;31.45;;
209;SDS011;90;48.810;9.120;2022-12-18T07:58:18;72.10;;;29.98;;
209;SDS011;90;48.810;9.120;2022-12-18T08:00:46;64.75;;;29.58;;
209;SDS011;90;48.810;9.120;2022-12-18T08:03:13;71.55;;;29.13;;
209;SDS011;90;48.810;9.120;2022-12-18T08:05:40;66.57;;;30.02;;
209;SDS011;90;48.810;9.120;2022-12-18T08:08:07;70.47;;;28.73;;
209;SDS011;90;48.810;9.120;2022-12-18T08:10:34;70.65;;;30.38;;
209;SDS011;90;48.810;9.120;2022-12-18T08:13:01;72.30;;;31.13;;
209;SDS011;90;48.810;9.120;2022-12-18T08:15:28;72.65;;;29.90;;
209;SDS011;90;48.810;9.120;2022-12-18T08:17:57;72.75;;;31.42;;
209;SDS011;90;48.810;9.120;2022-12-18T08:20:24;74.28;;;30.27;;
209;SDS011;90;48.810;9.120;2022-12-18T08:22:51;67.18;;;30.02;;
209;SDS011;90;48.810;9.120;2022-12-18T08:25:22;74.63;;;30.35;;
209;SDS011;90;48.810;9.120;2022-12-18T08:27:59;74.38;;;30.45;;
209;SDS011;90;48.810;9.120;2022-12-18T08:30:26;66.57;;;30.38;;
209;SDS011;90;48.810;9.120;2022-12-18T08:32:53;76.45;;;31.20;;
209;SDS011;90;48.810;9.120;2022-12-18T08:35:21;71.32;;;31.15;;
209;SDS011;90;48.810;9.120;2022-12-18T08:37:48;68.43;;;30.05;;
209;SDS011;90;48.810;9.120;2022-12-18T08:40:15;74.80;;;30.23;;
209;SDS011;90;48.810;9.120;2022-12-18T08:42:42;77.35;;;32.22;;
209;SDS011;90;48.810;9.120;2022-12-18T08:45:27;66.82;;;30.77;;
209;SDS011;90;48.810;9.120;2022-12-18T08:47:54;80.50;;;32.85;;
209;SDS011;90;48.810;9.120;2022-12-18T08:50:22;86.50;;;34.45;;
209;SDS011;90;48.810;9.120;2022-12-18T08:52:49;84.47;;;32.92;;
209;SDS011;90;48.810;9.120;2022-12-18T08:55:16;82.88;;;34.92;;
209;SDS011;90;48.810;9.120;2022-12-18T08:57:43;76.93;;;33.72;;
209;SDS011;90;48.810;9.120;2022-12-18T09:00:14;88.00;;;34.03;;
209;SDS011;90;48.810;9.120;2022-12-18T09:02:42;82.90;;;32.75;;
209;SDS011;90;48.810;9.120;2022-12-18T09:05:09;78.18;;;34.25;;
209;SDS011;90;48.810;9.120;2022-12-18T09:07:37;79.10;;;33.88;;
209;SDS011;90;48.810;9.120;2022-12-18T09:10:05;85.47;;;35.00;;
209;SDS011;90;48.810;9.120;2022-12-18T09:12:32;88.60;;;34.25;;
209;SDS011;90;48.810;9.120;2022-12-18T09:14:59;87.20;;;35.75;;
209;SDS011;90;48.810;9.120;2022-12-18T09:17:35;89.65;;;36.28;;
209;SDS011;90;48.810;9.120;2022-12-18T09:20:02;93.85;;;37.08;;
209;SDS011;90;48.810;9.120;2022-12-18T09:22:30;86.65;;;34.15;;
209;SDS011;90;48.810;9.120;2022-12-18T09:24:58;86.65;;;34.53;;
209;SDS011;90;48.810;9.120;2022-12-18T09:27:25;91.25;;;34.70;;
209;SDS011;90;48.810;9.120;2022-12-18T09:29:52;91.10;;;34.88;;
209;SDS011;90;48.810;9.120;2022-12-18T09:32:19;89.15;;;36.25;;
209;SDS011;90;48.810;9.120;2022-12-18T09:34:46;86.53;;;36.17;;
209;SDS011;90;48.810;9.120;2022-12-18T09:37:13;102.40;;;38.60;;
209;SDS011;90;48.810;9.120;2022-12-18T09:39:40;99.28;;;39.50;;
209;SDS011;90;48.810;9.120;2022-12-18T09:42:10;91.18;;;37.65;;
209;SDS011;90;48.810;9.120;2022-12-18T09:44:46;86.47;;;37.33;;
209;SDS011;90;48.810;9.120;2022-12-18T09:47:17;89.45;;;37.40;;
209;SDS011;90;48.810;9.120;2022-12-18T09:49:48;90.25;;;35.75;;
209;SDS011;90;48.810;9.120;2022-12-18T09:52:19;89.63;;;36.58;;
209;SDS011;90;48.810;9.120;2022-12-18T09:54:52;97.30;;;38.20;;
209;SDS011;90;48.810;9.120;2022-12-18T09:57:24;89.60;;;36.10;;
209;SDS011;90;48.810;9.120;2022-12-18T09:59:53;98.25;;;36.53;;
209;SDS011;90;48.810;9.120;2022-12-18T10:02:24;91.50;;;35.40;;
209;SDS011;90;48.810;9.120;2022-12-18T10:05:00;83.13;;;34.72;;
209;SDS011;90;48.810;9.120;2022-12-18T10:07:32;88.32;;;34.13;;
209;SDS011;90;48.810;9.120;2022-12-18T10:10:12;89.75;;;32.85;;
209;SDS011;90;48.810;9.120;2022-12-18T10:12:47;69.45;;;30.67;;
209;SDS011;90;48.810;9.120;2022-12-18T10:15:23;85.43;;;35.58;;
209;SDS011;90;48.810;9.120;2022-12-18T10:17:57;96.18;;;36.60;;
209;SDS011;90;48.810;9.120;2022-12-18T10:20:32;84.55;;;33.67;;
209;SDS011;90;48.810;9.120;2022-12-18T10:23:08;86.95;;;35.17;;
209;SDS011;90;48.810;9.120;2022-12-18T10:25:46;87.90;;;32.70;;
209;SDS011;90;48.810;9.120;2022-12-18T10:28:21;84.80;;;33.47;;
209;SDS011;90;48.810;9.120;2022-12-18T10:30:49;80.13;;;31.52;;
209;SDS011;90;48.810;9.120;2022-12-18T10:33:17;90.88;;;33.42;;
209;SDS011;90;48.810;9.120;2022-12-18T10:35:45;96.13;;;33.45;;
209;SDS011;90;48.810;9.120;2022-12-18T10:38:22;91.72;;;36.38;;
209;SDS011;90;48.810;9.120;2022-12-18T10:40:51;78.93;;;32.28;;
209;SDS011;90;48.810;9.120;2022-12-18T10:43:23;105.50;;;35.35;;
209;SDS011;90;48.810;9.120;2022-12-18T10:46:02;100.25;;;33.10;;
209;SDS011;90;48.810;9.120;2022-12-18T10:48:41;75.68;;;31.65;;
209;SDS011;90;48.810;9.120;2022-12-18T10:51:19;74.20;;;28.75;;
209;SDS011;90;48.810;9.120;2022-12-18T10:53:51;80.40;;;30.30;;
209;SDS011;90;48.810;9.120;2022-12-18T10:56:21;70.97;;;28.98;;
209;SDS011;90;48.810;9.120;2022-12-18T10:58:56;72.53;;;29.20;;
209;SDS011;90;48.810;9.120;2022-12-18T11:01:25;81.95;;;28.50;;
209;SDS011;90;48.810;9.120;2022-12-18T11:04:00;84.07;;;29.17;;
209;SDS011;90;48.810;9.120;2022-12-18T11:06:28;86.57;;;27.08;;
209;SDS011;90;48.810;9.120;2022-12-18T11:09:00;84.30;;;32.55;;
209;SDS011;90;48.810;9.120;2022-12-18T11:11:28;46.90;;;19.10;;
209;SDS011;90;48.810;9.120;2022-12-18T11:13:59;76.68;;;26.10;;
209;SDS011;90;48.810;9.120;2022-12-18T11:16:30;82.05;;;30.60;;
209;SDS011;90;48.810;9.120;2022-12-18T11:19:11;63.63;;;26.95;;
209;SDS011;90;48.810;9.120;2022-12-18T11:21:46;63.55;;;27.52;;
209;SDS011;90;48.810;9.120;2022-12-18T11:24:22;68.38;;;27.30;;
209;SDS011;90;48.810;9.120;2022-12-18T11:26:54;61.35;;;27.70;;
209;SDS011;90;48.810;9.120;2022-12-18T11:29:24;64.03;;;26.95;;
209;SDS011;90;48.810;9.120;2022-12-18T11:32:12;70.47;;;29.02;;
209;SDS011;90;48.810;9.120;2022-12-18T11:35:03;78.65;;;30.50;;
209;SDS011;90;48.810;9.120;2022-12-18T11:37:36;70.03;;;29.10;;
209;SDS011;90;48.810;9.120;2022-12-18T11:40:06;76.25;;;29.25;;
209;SDS011;90;48.810;9.120;2022-12-18T11:42:41;84.57;;;32.70;;
209;SDS011;90;48.810;9.120;2022-12-18T11:45:23;79.82;;;29.42;;
209;SDS011;90;48.810;9.120;2022-12-18T11:47:55;76.22;;;29.50;;
209;SDS011;90;48.810;9.120;2022-12-18T11:50:26;69.82;;;28.52;;
209;SDS011;90;48.810;9.120;2022-12-18T11:52:57;81.30;;;27.77;;
209;SDS011;90;48.810;9.120;2022-12-18T11:55:27;67.13;;;28.05;;
209;SDS011;90;48.810;9.120;2022-12-18T11:58:03;69.15;;;26.92;;
209;SDS011;90;48.810;9.120;2022-12-18T12:00:37;62.97;;;25.50;;
209;SDS011;90;48.810;9.120;2022-12-18T12:06:13;65.72;;;26.80;;
209;SDS011;90;48.810;9.120;2022-12-18T12:08:52;70.45;;;29.17;;
209;SDS011;90;48.810;9.120;2022-12-18T12:11:31;68.80;;;27.10;;
209;SDS011;90;48.810;9.120;2022-12-18T12:17:09;66.70;;;26.80;;
209;SDS011;90;48.810;9.120;2022-12-18T12:19:43;64.55;;;26.25;;
209;SDS011;90;48.810;9.120;2022-12-18T12:22:20;66.28;;;24.38;;
209;SDS011;90;48.810;9.120;2022-12-18T12:24:58;69.40;;;26.15;;
209;SDS011;90;48.810;9.120;2022-12-18T12:27:45;60.83;;;25.48;;
209;SDS011;90;48.810;9.120;2022-12-18T12:30:18;67.82;;;25.73;;
209;SDS011;90;48.810;9.120;2022-12-18T12:32:56;65.80;;;25.08;;
209;SDS011;90;48.810;9.120;2022-12-18T12:35:36;64.57;;;26.42;;
209;SDS011;90;48.810;9.120;2022-12-18T12:38:11;67.72;;;25.77;;
209;SDS011;90;48.810;9.120;2022-12-18T12:40:42;65.55;;;26.17;;
209;SDS011;90;48.810;9.120;2022-12-18T12:43:28;63.47;;;25.75;;
209;SDS011;90;48.810;9.120;2022-12-18T12:46:03;59.05;;;23.33;;
209;SDS011;90;48.810;9.120;2022-12-18T12:48:37;66.47;;;27.42;;
209;SDS011;90;48.810;9.120;2022-12-18T12:51:10;64.47;;;25.38;;
209;SDS011;90;48.810;9.120;2022-12-18T12:53:41;67.57;;;26.88;;
209;SDS011;90;48.810;9.120;2022-12-18T12:56:10;65.53;;;25.50;;
209;SDS011;90;48.810;9.120;2022-12-18T12:58:41;64.45;;;24.08;;
209;SDS011;90;48.810;9.120;2022-12-18T13:01:18;64.25;;;24.63;;
209;SDS011;90;48.810;9.120;2022-12-18T13:03:56;56.05;;;24.33;;
209;SDS011;90;48.810;9.120;2022-12-18T13:06:33;63.70;;;25.52;;
209;SDS011;90;48.810;9.120;2022-12-18T13:09:06;58.03;;;23.58;;
209;SDS011;90;48.810;9.120;2022-12-18T13:11:36;64.63;;;25.42;;
209;SDS011;90;48.810;9.120;2022-12-18T13:14:24;62.28;;;24.17;;
209;SDS011;90;48.810;9.120;2022-12-18T13:20:09;61.25;;;24.73;;
209;SDS011;90;48.810;9.120;2022-12-18T13:22:38;71.38;;;25.63;;
209;SDS011;90;48.810;9.120;2022-12-18T13:25:28;66.13;;;25.50;;
209;SDS011;90;48.810;9.120;2022-12-18T13:28:10;56.35;;;23.20;;
209;SDS011;90;48.810;9.120;2022-12-18T13:30:46;70.97;;;24.65;;
209;SDS011;90;48.810;9.120;2022-12-18T13:36:23;60.33;;;25.08;;
209;SDS011;90;48.810;9.120;2022-12-18T13:41:51;53.35;;;24.40;;
209;SDS011;90;48.810;9.120;2022-12-18T13:44:26;65.82;;;24.80;;
209;SDS011;90;48.810;9.120;2022-12-18T13:46:58;64.95;;;26.08;;
209;SDS011;90;48.810;9.120;2022-12-18T13:49:26;70.95;;;24.73;;
209;SDS011;90;48.810;9.120;2022-12-18T13:52:03;59.72;;;22.27;;
209;SDS011;90;48.810;9.120;2022-12-18T13:54:43;60.38;;;25.25;;
209;SDS011;90;48.810;9.120;2022-12-18T13:57:25;61.15;;;22.95;;
209;SDS011;90;48.810;9.120;2022-12-18T13:59:54;55.28;;;23.80;;
209;SDS011;90;48.810;9.120;2022-12-18T14:02:22;66.10;;;23.45;;
209;SDS011;90;48.810;9.120;2022-12-18T14:04:50;62.30;;;25.65;;
209;SDS011;90;48.810;9.120;2022-12-18T14:07:20;62.85;;;24.17;;
209;SDS011;90;48.810;9.120;2022-12-18T14:09:50;74.80;;;24.40;;
209;SDS011;90;48.810;9.120;2022-12-18T14:12:21;64.25;;;23.23;;
209;SDS011;90;48.810;9.120;2022-12-18T14:15:10;66.38;;;25.60;;
209;SDS011;90;48.810;9.120;2022-12-18T14:17:49;65.38;;;25.35;;
209;SDS011;90;48.810;9.120;2022-12-18T14:20:16;60.42;;;23.48;;
209;SDS011;90;48.810;9.120;2022-12-18T14:22:46;57.92;;;23.45;;
209;SDS011;90;48.810;9.120;2022-12-18T14:25:16;71.03;;;24.92;;
209;SDS011;90;48.810;9.120;2022-12-18T14:27:45;66.93;;;25.85;;
209;SDS011;90;48.810;9.120;2022-12-18T14:33:04;66.93;;;24.73;;
209;SDS011;90;48.810;9.120;2022-12-18T14:35:36;67.53;;;25.42;;
209;SDS011;90;48.810;9.120;2022-12-18T14:38:15;69.90;;;25.75;;
209;SDS011;90;48.810;9.120;2022-12-18T14:40:47;60.92;;;25.70;;
209;SDS011;90;48.810;9.120;2022-12-18T14:43:18;66.25;;;25.25;;
209;SDS011;90;48.810;9.120;2022-12-18T14:45:45;67.60;;;26.40;;
209;SDS011;90;48.810;9.120;2022-12-18T14:48:14;66.65;;;26.83;;
209;SDS011;90;48.810;9.120;2022-12-18T14:50:43;71.75;;;26.77;;
209;SDS011;90;48.810;9.120;2022-12-18T14:53:22;60.03;;;25.90;;
209;SDS011;90;48.810;9.120;2022-12-18T14:55:57;76.00;;;27.92;;
209;SDS011;90;48.810;9.120;2022-12-18T14:58:24;75.72;;;27.35;;
209;SDS011;90;48.810;9.120;2022-12-18T15:00:51;83.13;;;28.40;;
209;SDS011;90;48.810;9.120;2022-12-18T15:03:18;73.07;;;28.92;;
209;SDS011;90;48.810;9.120;2022-12-18T15:05:47;67.45;;;29.00;;
209;SDS011;90;48.810;9.120;2022-12-18T15:08:26;76.97;;;29.10;;
209;SDS011;90;48.810;9.120;2022-12-18T15:10:55;79.40;;;28.65;;
209;SDS011;90;48.810;9.120;2022-12-18T15:13:23;82.13;;;29.25;;
209;SDS011;90;48.810;9.120;2022-12-18T15:15:50;81.03;;;29.80;;
209;SDS011;90;48.810;9.120;2022-12-18T15:18:19;69.05;;;29.10;;
209;SDS011;90;48.810;9.120;2022-12-18T15:20:48;69.75;;;26.85;;
209;SDS011;90;48.810;9.120;2022-12-18T15:23:17;78.15;;;28.65;;
209;SDS011;90;48.810;9.120;2022-12-18T15:25:48;76.32;;;30.42;;
209;SDS011;90;48.810;9.120;2022-12-18T15:28:21;89.35;;;30.65;;
209;SDS011;90;48.810;9.120;2022-12-18T15:30:57;76.40;;;30.67;;
209;SDS011;90;48.810;9.120;2022-12-18T15:33:30;75.20;;;29.92;;
209;SDS011;90;48.810;9.120;2022-12-18T15:35:59;73.30;;;28.52;;
209;SDS011;90;48.810;9.120;2022-12-18T15:38:28;83.30;;;30.15;;
209;SDS011;90;48.810;9.120;2022-12-18T15:40:56;87.75;;;30.65;;
209;SDS011;90;48.810;9.120;2022-12-18T15:43:24;81.30;;;27.40;;
209;SDS011;90;48.810;9.120;2022-12-18T15:45:59;71.97;;;28.17;;
209;SDS011;90;48.810;9.120;2022-12-18T15:48:27;73.43;;;29.40;;
209;SDS011;90;48.810;9.120;2022-12-18T15:50:55;86.90;;;29.25;;
209;SDS011;90;48.810;9.120;2022-12-18T15:53:23;77.55;;;30.35;;
209;SDS011;90;48.810;9.120;2022-12-18T15:55:51;84.13;;;29.98;;
209;SDS011;90;48.810;9.120;2022-12-18T15:58:37;92.20;;;32.35;;
209;SDS011;90;48.810;9.120;2022-12-18T16:01:04;78.25;;;30.58;;
209;SDS011;90;48.810;9.120;2022-12-18T16:03:31;73.50;;;28.27;;
209;SDS011;90;48.810;9.120;2022-12-18T16:05:58;87.35;;;29.65;;